sensor_id;sensor_type;location;lat;lon;timestamp;temperature;humidity
52127;DHT22;38120;53.176;6.614;2023-04-30T00:01:52;5.50;99.90
52127;DHT22;38120;53.176;6.614;2023-04-30T00:04:18;5.40;99.90
52127;DHT22;38120;53.176;6.614;2023-04-30T00:06:44;6.70;99.90
52127;DHT22;38120;53.176;6.614;2023-04-30T00:09:09;5.50;99.90
52127;DHT22;38120;53.176;6.614;2023-04-30T00:11:35;5.80;99.90
52127;DHT22;38120;53.176;6.614;2023-04-30T00:14:01;5.50;99.90
52127;DHT22;38120;53.176;6.614;2023-04-30T00:16:26;5.30;99.90
52127;DHT22;38120;53.176;6.614;2023-04-30T00:18:52;5.40;99.90
52127;DHT22;38120;53.176;6.614;2023-04-30T00:21:18;5.20;99.90
52127;DHT22;38120;53.176;6.614;2023-04-30T00:23:43;5.20;99.90
52127;DHT22;38120;53.176;6.614;2023-04-30T00:26:09;5.30;99.90
52127;DHT22;38120;53.176;6.614;2023-04-30T00:28:35;5.90;99.90
52127;DHT22;38120;53.176;6.614;2023-04-30T00:31:00;5.20;99.90
52127;DHT22;38120;53.176;6.614;2023-04-30T00:33:27;5.20;99.90
52127;DHT22;38120;53.176;6.614;2023-04-30T00:35:52;5.50;99.90
52127;DHT22;38120;53.176;6.614;2023-04-30T00:38:18;5.20;99.90
52127;DHT22;38120;53.176;6.614;2023-04-30T00:40:44;5.00;99.90
52127;DHT22;38120;53.176;6.614;2023-04-30T00:43:10;6.80;99.90
52127;DHT22;38120;53.176;6.614;2023-04-30T00:45:36;5.10;99.90
52127;DHT22;38120;53.176;6.614;2023-04-30T00:48:02;5.10;99.90
52127;DHT22;38120;53.176;6.614;2023-04-30T00:50:28;5.00;99.90
52127;DHT22;38120;53.176;6.614;2023-04-30T00:52:54;5.00;99.90
52127;DHT22;38120;53.176;6.614;2023-04-30T00:55:20;5.00;99.90
52127;DHT22;38120;53.176;6.614;2023-04-30T00:57:46;4.90;99.90
52127;DHT22;38120;53.176;6.614;2023-04-30T01:00:12;4.90;99.90
52127;DHT22;38120;53.176;6.614;2023-04-30T01:02:38;4.90;99.90
52127;DHT22;38120;53.176;6.614;2023-04-30T01:05:24;5.30;99.90
52127;DHT22;38120;53.176;6.614;2023-04-30T01:07:56;6.00;99.90
52127;DHT22;38120;53.176;6.614;2023-04-30T01:10:27;4.80;99.90
52127;DHT22;38120;53.176;6.614;2023-04-30T01:13:32;4.80;99.90
52127;DHT22;38120;53.176;6.614;2023-04-30T01:16:10;4.80;99.90
52127;DHT22;38120;53.176;6.614;2023-04-30T01:18:42;4.80;99.90
52127;DHT22;38120;53.176;6.614;2023-04-30T01:21:13;5.30;99.90
52127;DHT22;38120;53.176;6.614;2023-04-30T01:29:21;4.70;99.90
52127;DHT22;38120;53.176;6.614;2023-04-30T01:31:49;4.80;99.90
52127;DHT22;38120;53.176;6.614;2023-04-30T01:34:15;4.70;99.90
52127;DHT22;38120;53.176;6.614;2023-04-30T01:39:55;4.60;99.90
52127;DHT22;38120;53.176;6.614;2023-04-30T01:42:41;4.50;99.90
52127;DHT22;38120;53.176;6.614;2023-04-30T01:45:28;5.60;99.90
52127;DHT22;38120;53.176;6.614;2023-04-30T01:48:20;4.60;99.90
52127;DHT22;38120;53.176;6.614;2023-04-30T01:50:57;4.60;99.90
52127;DHT22;38120;53.176;6.614;2023-04-30T01:53:42;4.50;99.90
52127;DHT22;38120;53.176;6.614;2023-04-30T01:56:23;4.40;99.90
52127;DHT22;38120;53.176;6.614;2023-04-30T01:58:52;4.40;99.90
52127;DHT22;38120;53.176;6.614;2023-04-30T02:01:25;5.60;99.90
52127;DHT22;38120;53.176;6.614;2023-04-30T02:03:51;4.40;99.90
52127;DHT22;38120;53.176;6.614;2023-04-30T02:06:16;5.70;99.90
52127;DHT22;38120;53.176;6.614;2023-04-30T02:08:42;4.40;99.90
52127;DHT22;38120;53.176;6.614;2023-04-30T02:11:08;6.00;99.90
52127;DHT22;38120;53.176;6.614;2023-04-30T02:13:36;4.40;99.90
52127;DHT22;38120;53.176;6.614;2023-04-30T02:16:01;4.50;99.90
52127;DHT22;38120;53.176;6.614;2023-04-30T02:18:28;5.70;99.90
52127;DHT22;38120;53.176;6.614;2023-04-30T02:20:54;5.60;99.90
52127;DHT22;38120;53.176;6.614;2023-04-30T02:23:19;4.50;99.90
52127;DHT22;38120;53.176;6.614;2023-04-30T02:25:45;4.70;99.90
52127;DHT22;38120;53.176;6.614;2023-04-30T02:28:13;4.60;99.90
52127;DHT22;38120;53.176;6.614;2023-04-30T02:30:42;4.50;99.90
52127;DHT22;38120;53.176;6.614;2023-04-30T02:33:07;4.60;99.90
52127;DHT22;38120;53.176;6.614;2023-04-30T02:35:36;4.60;99.90
52127;DHT22;38120;53.176;6.614;2023-04-30T02:38:03;5.50;99.90
52127;DHT22;38120;53.176;6.614;2023-04-30T02:40:28;5.00;99.90
52127;DHT22;38120;53.176;6.614;2023-04-30T02:42:54;4.80;99.90
52127;DHT22;38120;53.176;6.614;2023-04-30T02:45:21;4.70;99.90
52127;DHT22;38120;53.176;6.614;2023-04-30T02:47:47;4.70;99.90
52127;DHT22;38120;53.176;6.614;2023-04-30T02:50:13;4.70;99.90
52127;DHT22;38120;53.176;6.614;2023-04-30T02:52:39;5.90;99.90
52127;DHT22;38120;53.176;6.614;2023-04-30T02:55:05;4.70;99.90
52127;DHT22;38120;53.176;6.614;2023-04-30T02:57:31;4.70;99.90
52127;DHT22;38120;53.176;6.614;2023-04-30T02:59:57;4.70;99.90
52127;DHT22;38120;53.176;6.614;2023-04-30T03:02:23;5.30;99.90
52127;DHT22;38120;53.176;6.614;2023-04-30T03:04:49;6.20;99.90
52127;DHT22;38120;53.176;6.614;2023-04-30T03:07:14;4.80;99.90
52127;DHT22;38120;53.176;6.614;2023-04-30T03:09:40;6.80;99.90
52127;DHT22;38120;53.176;6.614;2023-04-30T03:12:06;4.90;99.90
52127;DHT22;38120;53.176;6.614;2023-04-30T03:14:32;4.80;99.90
52127;DHT22;38120;53.176;6.614;2023-04-30T03:16:57;5.20;99.90
52127;DHT22;38120;53.176;6.614;2023-04-30T03:19:23;6.60;99.90
52127;DHT22;38120;53.176;6.614;2023-04-30T03:21:50;4.90;99.90
52127;DHT22;38120;53.176;6.614;2023-04-30T03:24:17;4.90;99.90
52127;DHT22;38120;53.176;6.614;2023-04-30T03:26:43;6.10;99.90
52127;DHT22;38120;53.176;6.614;2023-04-30T03:29:11;5.00;99.90
52127;DHT22;38120;53.176;6.614;2023-04-30T03:31:36;5.00;99.90
52127;DHT22;38120;53.176;6.614;2023-04-30T03:34:02;6.80;99.90
52127;DHT22;38120;53.176;6.614;2023-04-30T03:36:40;4.90;99.90
52127;DHT22;38120;53.176;6.614;2023-04-30T03:39:06;4.90;99.90
52127;DHT22;38120;53.176;6.614;2023-04-30T03:41:34;4.90;99.90
52127;DHT22;38120;53.176;6.614;2023-04-30T03:44:00;5.00;99.90
52127;DHT22;38120;53.176;6.614;2023-04-30T03:46:26;5.00;99.90
52127;DHT22;38120;53.176;6.614;2023-04-30T03:48:52;5.00;99.90
52127;DHT22;38120;53.176;6.614;2023-04-30T03:51:20;6.70;99.90
52127;DHT22;38120;53.176;6.614;2023-04-30T03:53:52;4.90;99.90
52127;DHT22;38120;53.176;6.614;2023-04-30T03:56:18;4.90;99.90
52127;DHT22;38120;53.176;6.614;2023-04-30T03:58:44;5.50;99.90
52127;DHT22;38120;53.176;6.614;2023-04-30T04:01:09;4.90;99.90
52127;DHT22;38120;53.176;6.614;2023-04-30T04:03:35;4.90;99.90
52127;DHT22;38120;53.176;6.614;2023-04-30T04:06:01;5.90;99.90
52127;DHT22;38120;53.176;6.614;2023-04-30T04:08:27;4.80;99.90
52127;DHT22;38120;53.176;6.614;2023-04-30T04:10:52;6.30;99.90
52127;DHT22;38120;53.176;6.614;2023-04-30T04:13:20;4.90;99.90
52127;DHT22;38120;53.176;6.614;2023-04-30T04:15:52;6.40;99.90
52127;DHT22;38120;53.176;6.614;2023-04-30T04:18:23;6.80;99.90
52127;DHT22;38120;53.176;6.614;2023-04-30T04:20:55;4.90;99.90
52127;DHT22;38120;53.176;6.614;2023-04-30T04:23:26;5.00;99.90
52127;DHT22;38120;53.176;6.614;2023-04-30T04:25:52;4.80;99.90
52127;DHT22;38120;53.176;6.614;2023-04-30T04:28:18;5.70;99.90
52127;DHT22;38120;53.176;6.614;2023-04-30T04:30:44;4.70;99.90
52127;DHT22;38120;53.176;6.614;2023-04-30T04:33:10;4.70;99.90
52127;DHT22;38120;53.176;6.614;2023-04-30T04:35:36;4.60;99.90
52127;DHT22;38120;53.176;6.614;2023-04-30T04:38:02;4.60;99.90
52127;DHT22;38120;53.176;6.614;2023-04-30T04:40:29;4.60;99.90
52127;DHT22;38120;53.176;6.614;2023-04-30T04:42:54;4.50;99.90
52127;DHT22;38120;53.176;6.614;2023-04-30T04:45:20;5.80;99.90
52127;DHT22;38120;53.176;6.614;2023-04-30T04:47:46;5.30;99.90
52127;DHT22;38120;53.176;6.614;2023-04-30T04:50:13;4.60;99.90
52127;DHT22;38120;53.176;6.614;2023-04-30T04:52:41;4.70;99.90
52127;DHT22;38120;53.176;6.614;2023-04-30T04:55:08;6.00;99.90
52127;DHT22;38120;53.176;6.614;2023-04-30T04:57:34;4.70;99.90
52127;DHT22;38120;53.176;6.614;2023-04-30T04:59:59;4.70;99.90
52127;DHT22;38120;53.176;6.614;2023-04-30T05:02:25;5.20;99.90
52127;DHT22;38120;53.176;6.614;2023-04-30T05:04:51;5.80;99.90
52127;DHT22;38120;53.176;6.614;2023-04-30T05:07:17;6.70;99.90
52127;DHT22;38120;53.176;6.614;2023-04-30T05:09:44;6.10;99.90
52127;DHT22;38120;53.176;6.614;2023-04-30T05:12:11;5.10;99.90
52127;DHT22;38120;53.176;6.614;2023-04-30T05:14:37;5.10;99.90
52127;DHT22;38120;53.176;6.614;2023-04-30T05:17:03;5.20;99.90
52127;DHT22;38120;53.176;6.614;2023-04-30T05:19:29;5.40;99.90
52127;DHT22;38120;53.176;6.614;2023-04-30T05:21:55;7.20;99.90
52127;DHT22;38120;53.176;6.614;2023-04-30T05:24:24;5.50;99.90
52127;DHT22;38120;53.176;6.614;2023-04-30T05:26:50;6.40;99.90
52127;DHT22;38120;53.176;6.614;2023-04-30T05:29:16;6.90;99.90
52127;DHT22;38120;53.176;6.614;2023-04-30T05:31:41;5.90;99.90
52127;DHT22;38120;53.176;6.614;2023-04-30T05:34:10;6.00;99.90
52127;DHT22;38120;53.176;6.614;2023-04-30T05:36:36;6.10;99.90
52127;DHT22;38120;53.176;6.614;2023-04-30T05:39:02;6.90;99.90
52127;DHT22;38120;53.176;6.614;2023-04-30T05:41:28;6.30;99.90
52127;DHT22;38120;53.176;6.614;2023-04-30T05:43:54;6.40;99.90
52127;DHT22;38120;53.176;6.614;2023-04-30T05:46:20;6.50;99.90
52127;DHT22;38120;53.176;6.614;2023-04-30T05:48:45;6.60;99.90
52127;DHT22;38120;53.176;6.614;2023-04-30T05:51:11;6.80;99.90
52127;DHT22;38120;53.176;6.614;2023-04-30T05:53:37;6.80;99.90
52127;DHT22;38120;53.176;6.614;2023-04-30T05:56:02;6.90;99.90
52127;DHT22;38120;53.176;6.614;2023-04-30T05:58:28;6.90;99.90
52127;DHT22;38120;53.176;6.614;2023-04-30T06:00:54;7.00;99.90
52127;DHT22;38120;53.176;6.614;2023-04-30T06:03:19;7.10;99.90
52127;DHT22;38120;53.176;6.614;2023-04-30T06:05:46;7.10;99.90
52127;DHT22;38120;53.176;6.614;2023-04-30T06:08:12;7.40;99.90
52127;DHT22;38120;53.176;6.614;2023-04-30T06:10:38;7.30;99.90
52127;DHT22;38120;53.176;6.614;2023-04-30T06:13:05;7.30;99.90
52127;DHT22;38120;53.176;6.614;2023-04-30T06:15:30;7.50;99.90
52127;DHT22;38120;53.176;6.614;2023-04-30T06:17:57;7.60;99.90
52127;DHT22;38120;53.176;6.614;2023-04-30T06:20:22;7.70;99.90
52127;DHT22;38120;53.176;6.614;2023-04-30T06:22:48;7.80;99.90
52127;DHT22;38120;53.176;6.614;2023-04-30T06:25:14;8.90;99.90
52127;DHT22;38120;53.176;6.614;2023-04-30T06:27:40;8.00;99.90
52127;DHT22;38120;53.176;6.614;2023-04-30T06:30:06;8.00;99.90
52127;DHT22;38120;53.176;6.614;2023-04-30T06:32:32;8.20;99.90
52127;DHT22;38120;53.176;6.614;2023-04-30T06:34:57;8.20;99.90
52127;DHT22;38120;53.176;6.614;2023-04-30T06:37:23;8.30;99.90
52127;DHT22;38120;53.176;6.614;2023-04-30T06:39:49;8.90;99.90
52127;DHT22;38120;53.176;6.614;2023-04-30T06:42:16;8.40;99.90
52127;DHT22;38120;53.176;6.614;2023-04-30T06:44:41;8.50;99.90
52127;DHT22;38120;53.176;6.614;2023-04-30T06:47:07;8.40;99.90
52127;DHT22;38120;53.176;6.614;2023-04-30T06:49:33;8.40;99.90
52127;DHT22;38120;53.176;6.614;2023-04-30T06:51:58;8.40;99.90
52127;DHT22;38120;53.176;6.614;2023-04-30T06:54:24;8.40;99.90
52127;DHT22;38120;53.176;6.614;2023-04-30T06:56:51;8.50;99.90
52127;DHT22;38120;53.176;6.614;2023-04-30T06:59:17;8.50;99.90
52127;DHT22;38120;53.176;6.614;2023-04-30T07:01:43;8.50;99.90
52127;DHT22;38120;53.176;6.614;2023-04-30T07:04:08;8.70;99.90
52127;DHT22;38120;53.176;6.614;2023-04-30T07:06:34;8.70;99.90
52127;DHT22;38120;53.176;6.614;2023-04-30T07:09:01;8.80;99.90
52127;DHT22;38120;53.176;6.614;2023-04-30T07:11:27;8.80;99.90
52127;DHT22;38120;53.176;6.614;2023-04-30T07:13:52;9.00;99.90
52127;DHT22;38120;53.176;6.614;2023-04-30T07:16:18;9.00;99.90
52127;DHT22;38120;53.176;6.614;2023-04-30T07:18:44;9.10;99.90
52127;DHT22;38120;53.176;6.614;2023-04-30T07:21:13;9.20;99.90
52127;DHT22;38120;53.176;6.614;2023-04-30T07:23:39;9.30;99.90
52127;DHT22;38120;53.176;6.614;2023-04-30T07:26:04;9.60;99.90
52127;DHT22;38120;53.176;6.614;2023-04-30T07:28:32;9.70;99.90
52127;DHT22;38120;53.176;6.614;2023-04-30T07:30:58;9.60;99.90
52127;DHT22;38120;53.176;6.614;2023-04-30T07:33:24;9.70;99.90
52127;DHT22;38120;53.176;6.614;2023-04-30T07:35:50;9.90;99.90
52127;DHT22;38120;53.176;6.614;2023-04-30T07:38:20;9.80;99.90
52127;DHT22;38120;53.176;6.614;2023-04-30T07:40:46;9.90;99.90
52127;DHT22;38120;53.176;6.614;2023-04-30T07:43:11;9.80;99.90
52127;DHT22;38120;53.176;6.614;2023-04-30T07:45:37;9.80;99.90
52127;DHT22;38120;53.176;6.614;2023-04-30T07:48:03;9.80;99.90
52127;DHT22;38120;53.176;6.614;2023-04-30T07:50:30;9.80;99.90
52127;DHT22;38120;53.176;6.614;2023-04-30T07:52:58;9.90;99.90
52127;DHT22;38120;53.176;6.614;2023-04-30T07:55:35;9.90;99.90
52127;DHT22;38120;53.176;6.614;2023-04-30T07:58:00;10.00;99.90
52127;DHT22;38120;53.176;6.614;2023-04-30T08:00:28;10.10;99.90
52127;DHT22;38120;53.176;6.614;2023-04-30T08:02:54;10.30;99.90
52127;DHT22;38120;53.176;6.614;2023-04-30T08:05:20;10.40;99.90
52127;DHT22;38120;53.176;6.614;2023-04-30T08:07:45;10.30;99.90
52127;DHT22;38120;53.176;6.614;2023-04-30T08:10:11;10.40;99.90
52127;DHT22;38120;53.176;6.614;2023-04-30T08:12:37;10.40;99.90
52127;DHT22;38120;53.176;6.614;2023-04-30T08:15:04;10.50;99.90
52127;DHT22;38120;53.176;6.614;2023-04-30T08:17:33;10.50;99.90
52127;DHT22;38120;53.176;6.614;2023-04-30T08:20:00;10.80;99.90
52127;DHT22;38120;53.176;6.614;2023-04-30T08:22:25;10.80;99.90
52127;DHT22;38120;53.176;6.614;2023-04-30T08:24:51;10.50;99.90
52127;DHT22;38120;53.176;6.614;2023-04-30T08:27:17;10.80;99.90
52127;DHT22;38120;53.176;6.614;2023-04-30T08:29:43;10.80;99.90
52127;DHT22;38120;53.176;6.614;2023-04-30T08:32:14;10.90;99.90
52127;DHT22;38120;53.176;6.614;2023-04-30T08:34:40;10.80;99.90
52127;DHT22;38120;53.176;6.614;2023-04-30T08:37:06;10.80;99.90
52127;DHT22;38120;53.176;6.614;2023-04-30T08:39:32;10.90;99.90
52127;DHT22;38120;53.176;6.614;2023-04-30T08:42:01;10.90;99.90
52127;DHT22;38120;53.176;6.614;2023-04-30T08:44:29;10.90;99.90
52127;DHT22;38120;53.176;6.614;2023-04-30T08:46:55;11.00;99.90
52127;DHT22;38120;53.176;6.614;2023-04-30T08:49:23;11.00;99.90
52127;DHT22;38120;53.176;6.614;2023-04-30T08:51:50;11.20;99.90
52127;DHT22;38120;53.176;6.614;2023-04-30T08:54:17;11.20;99.90
52127;DHT22;38120;53.176;6.614;2023-04-30T08:56:46;11.50;99.90
52127;DHT22;38120;53.176;6.614;2023-04-30T08:59:13;11.50;99.90
52127;DHT22;38120;53.176;6.614;2023-04-30T09:01:39;11.40;99.90
52127;DHT22;38120;53.176;6.614;2023-04-30T09:04:11;11.50;99.90
52127;DHT22;38120;53.176;6.614;2023-04-30T09:06:36;11.50;99.90
52127;DHT22;38120;53.176;6.614;2023-04-30T09:09:11;11.40;99.90
52127;DHT22;38120;53.176;6.614;2023-04-30T09:11:37;11.40;99.90
52127;DHT22;38120;53.176;6.614;2023-04-30T09:14:08;11.50;99.90
52127;DHT22;38120;53.176;6.614;2023-04-30T09:16:49;11.70;99.90
52127;DHT22;38120;53.176;6.614;2023-04-30T09:19:27;11.90;99.90
52127;DHT22;38120;53.176;6.614;2023-04-30T09:21:52;11.80;99.90
52127;DHT22;38120;53.176;6.614;2023-04-30T09:24:18;12.00;99.90
52127;DHT22;38120;53.176;6.614;2023-04-30T09:26:45;12.20;99.90
52127;DHT22;38120;53.176;6.614;2023-04-30T09:29:14;12.10;99.90
52127;DHT22;38120;53.176;6.614;2023-04-30T09:31:46;12.10;99.90
52127;DHT22;38120;53.176;6.614;2023-04-30T09:34:12;11.80;99.90
52127;DHT22;38120;53.176;6.614;2023-04-30T09:36:54;11.70;99.90
52127;DHT22;38120;53.176;6.614;2023-04-30T09:39:20;12.20;99.90
52127;DHT22;38120;53.176;6.614;2023-04-30T09:41:46;12.20;99.90
52127;DHT22;38120;53.176;6.614;2023-04-30T09:44:29;12.30;99.90
52127;DHT22;38120;53.176;6.614;2023-04-30T09:46:56;12.30;99.90
52127;DHT22;38120;53.176;6.614;2023-04-30T09:49:24;12.50;99.90
52127;DHT22;38120;53.176;6.614;2023-04-30T09:54:24;12.60;65.70
52127;DHT22;38120;53.176;6.614;2023-04-30T09:56:53;12.70;1.00
52127;DHT22;38120;53.176;6.614;2023-04-30T09:59:31;12.80;1.00
52127;DHT22;38120;53.176;6.614;2023-04-30T10:02:01;13.00;1.00
52127;DHT22;38120;53.176;6.614;2023-04-30T10:04:36;13.00;1.00
52127;DHT22;38120;53.176;6.614;2023-04-30T10:07:13;12.90;99.90
52127;DHT22;38120;53.176;6.614;2023-04-30T10:09:48;13.20;1.00
52127;DHT22;38120;53.176;6.614;2023-04-30T10:12:15;13.40;99.90
52127;DHT22;38120;53.176;6.614;2023-04-30T10:14:50;13.20;99.90
52127;DHT22;38120;53.176;6.614;2023-04-30T10:17:16;13.30;99.90
52127;DHT22;38120;53.176;6.614;2023-04-30T10:19:47;13.40;99.90
52127;DHT22;38120;53.176;6.614;2023-04-30T10:22:14;13.40;98.20
52127;DHT22;38120;53.176;6.614;2023-04-30T10:24:41;13.40;16.10
52127;DHT22;38120;53.176;6.614;2023-04-30T10:27:09;13.50;99.90
52127;DHT22;38120;53.176;6.614;2023-04-30T10:29:35;13.40;1.00
52127;DHT22;38120;53.176;6.614;2023-04-30T10:32:01;13.40;1.00
52127;DHT22;38120;53.176;6.614;2023-04-30T10:37:14;13.60;1.00
52127;DHT22;38120;53.176;6.614;2023-04-30T10:39:45;13.70;1.00
52127;DHT22;38120;53.176;6.614;2023-04-30T10:42:11;13.80;1.00
52127;DHT22;38120;53.176;6.614;2023-04-30T10:44:38;14.10;1.00
52127;DHT22;38120;53.176;6.614;2023-04-30T10:47:05;14.00;99.90
52127;DHT22;38120;53.176;6.614;2023-04-30T10:49:32;14.30;99.90
52127;DHT22;38120;53.176;6.614;2023-04-30T10:52:05;14.10;99.90
52127;DHT22;38120;53.176;6.614;2023-04-30T10:54:34;14.20;99.90
52127;DHT22;38120;53.176;6.614;2023-04-30T10:57:13;14.10;99.90
52127;DHT22;38120;53.176;6.614;2023-04-30T10:59:43;14.10;76.60
52127;DHT22;38120;53.176;6.614;2023-04-30T11:02:14;14.10;47.50
52127;DHT22;38120;53.176;6.614;2023-04-30T11:05:24;14.20;53.30
52127;DHT22;38120;53.176;6.614;2023-04-30T11:07:57;14.10;1.00
52127;DHT22;38120;53.176;6.614;2023-04-30T11:10:31;14.30;19.90
52127;DHT22;38120;53.176;6.614;2023-04-30T11:12:57;14.40;68.60
52127;DHT22;38120;53.176;6.614;2023-04-30T11:15:29;14.50;99.90
52127;DHT22;38120;53.176;6.614;2023-04-30T11:17:57;14.40;94.80
52127;DHT22;38120;53.176;6.614;2023-04-30T11:20:25;14.40;21.50
52127;DHT22;38120;53.176;6.614;2023-04-30T11:23:10;14.40;1.00
52127;DHT22;38120;53.176;6.614;2023-04-30T11:25:41;14.40;1.00
52127;DHT22;38120;53.176;6.614;2023-04-30T11:28:17;14.70;1.00
52127;DHT22;38120;53.176;6.614;2023-04-30T11:30:59;14.70;1.00
52127;DHT22;38120;53.176;6.614;2023-04-30T11:33:26;15.90;1.00
52127;DHT22;38120;53.176;6.614;2023-04-30T11:35:53;14.90;1.00
52127;DHT22;38120;53.176;6.614;2023-04-30T11:38:50;15.20;1.00
52127;DHT22;38120;53.176;6.614;2023-04-30T11:41:16;15.20;1.00
52127;DHT22;38120;53.176;6.614;2023-04-30T11:43:42;15.10;1.00
52127;DHT22;38120;53.176;6.614;2023-04-30T11:46:13;15.20;1.00
52127;DHT22;38120;53.176;6.614;2023-04-30T11:48:44;15.30;1.00
52127;DHT22;38120;53.176;6.614;2023-04-30T11:51:18;15.40;1.00
52127;DHT22;38120;53.176;6.614;2023-04-30T11:53:49;15.60;1.00
52127;DHT22;38120;53.176;6.614;2023-04-30T11:56:21;15.60;1.00
52127;DHT22;38120;53.176;6.614;2023-04-30T11:58:50;15.70;99.90
52127;DHT22;38120;53.176;6.614;2023-04-30T12:01:16;15.50;99.90
52127;DHT22;38120;53.176;6.614;2023-04-30T12:03:44;15.60;99.90
52127;DHT22;38120;53.176;6.614;2023-04-30T12:06:30;15.60;99.90
52127;DHT22;38120;53.176;6.614;2023-04-30T12:08:58;15.60;99.90
52127;DHT22;38120;53.176;6.614;2023-04-30T12:11:28;15.70;99.90
52127;DHT22;38120;53.176;6.614;2023-04-30T12:16:22;15.70;99.90
52127;DHT22;38120;53.176;6.614;2023-04-30T12:18:48;15.90;99.90
52127;DHT22;38120;53.176;6.614;2023-04-30T12:21:14;16.10;99.90
52127;DHT22;38120;53.176;6.614;2023-04-30T12:23:41;15.90;99.90
52127;DHT22;38120;53.176;6.614;2023-04-30T12:26:19;15.90;99.90
52127;DHT22;38120;53.176;6.614;2023-04-30T12:28:48;16.10;99.90
52127;DHT22;38120;53.176;6.614;2023-04-30T12:31:17;16.10;99.90
52127;DHT22;38120;53.176;6.614;2023-04-30T12:33:52;16.20;99.90
52127;DHT22;38120;53.176;6.614;2023-04-30T12:36:17;16.20;99.90
52127;DHT22;38120;53.176;6.614;2023-04-30T12:38:43;16.10;99.90
52127;DHT22;38120;53.176;6.614;2023-04-30T12:41:12;16.20;99.90
52127;DHT22;38120;53.176;6.614;2023-04-30T12:43:39;16.40;99.90
52127;DHT22;38120;53.176;6.614;2023-04-30T12:46:05;16.50;99.90
52127;DHT22;38120;53.176;6.614;2023-04-30T12:48:42;16.30;99.90
52127;DHT22;38120;53.176;6.614;2023-04-30T12:51:09;16.10;99.90
52127;DHT22;38120;53.176;6.614;2023-04-30T12:53:44;16.50;99.90
52127;DHT22;38120;53.176;6.614;2023-04-30T12:56:15;16.60;99.90
52127;DHT22;38120;53.176;6.614;2023-04-30T12:58:55;16.60;99.90
52127;DHT22;38120;53.176;6.614;2023-04-30T13:01:22;16.70;99.90
52127;DHT22;38120;53.176;6.614;2023-04-30T13:03:54;16.60;99.90
52127;DHT22;38120;53.176;6.614;2023-04-30T13:06:21;16.60;99.90
52127;DHT22;38120;53.176;6.614;2023-04-30T13:08:47;16.70;99.90
52127;DHT22;38120;53.176;6.614;2023-04-30T13:11:13;16.70;93.10
52127;DHT22;38120;53.176;6.614;2023-04-30T13:13:42;16.90;99.90
52127;DHT22;38120;53.176;6.614;2023-04-30T13:16:13;16.90;99.90
52127;DHT22;38120;53.176;6.614;2023-04-30T13:18:38;16.90;99.90
52127;DHT22;38120;53.176;6.614;2023-04-30T13:21:04;16.90;99.90
52127;DHT22;38120;53.176;6.614;2023-04-30T13:23:30;16.80;61.10
52127;DHT22;38120;53.176;6.614;2023-04-30T13:25:56;17.20;99.90
52127;DHT22;38120;53.176;6.614;2023-04-30T13:28:21;17.20;67.10
52127;DHT22;38120;53.176;6.614;2023-04-30T13:30:47;16.90;25.90
52127;DHT22;38120;53.176;6.614;2023-04-30T13:33:13;17.10;25.00
52127;DHT22;38120;53.176;6.614;2023-04-30T13:35:39;17.00;11.50
52127;DHT22;38120;53.176;6.614;2023-04-30T13:38:05;16.90;29.00
52127;DHT22;38120;53.176;6.614;2023-04-30T13:40:30;17.20;61.70
52127;DHT22;38120;53.176;6.614;2023-04-30T13:42:56;17.50;92.80
52127;DHT22;38120;53.176;6.614;2023-04-30T13:45:22;17.20;42.60
52127;DHT22;38120;53.176;6.614;2023-04-30T13:47:47;17.30;19.80
52127;DHT22;38120;53.176;6.614;2023-04-30T13:50:13;17.40;34.90
52127;DHT22;38120;53.176;6.614;2023-04-30T13:52:39;17.30;24.80
52127;DHT22;38120;53.176;6.614;2023-04-30T13:55:05;17.50;32.80
52127;DHT22;38120;53.176;6.614;2023-04-30T13:57:31;17.30;23.50
52127;DHT22;38120;53.176;6.614;2023-04-30T13:59:58;17.40;14.40
52127;DHT22;38120;53.176;6.614;2023-04-30T14:02:25;17.50;24.40
52127;DHT22;38120;53.176;6.614;2023-04-30T14:04:51;17.50;13.20
52127;DHT22;38120;53.176;6.614;2023-04-30T14:07:17;17.10;1.00
52127;DHT22;38120;53.176;6.614;2023-04-30T14:09:43;17.40;6.00
52127;DHT22;38120;53.176;6.614;2023-04-30T14:12:08;17.50;17.30
52127;DHT22;38120;53.176;6.614;2023-04-30T14:14:34;17.80;48.60
52127;DHT22;38120;53.176;6.614;2023-04-30T14:17:00;17.80;41.80
52127;DHT22;38120;53.176;6.614;2023-04-30T14:19:26;17.90;76.10
52127;DHT22;38120;53.176;6.614;2023-04-30T14:21:52;18.00;48.80
52127;DHT22;38120;53.176;6.614;2023-04-30T14:24:18;17.70;1.00
52127;DHT22;38120;53.176;6.614;2023-04-30T14:26:44;17.80;7.70
52127;DHT22;38120;53.176;6.614;2023-04-30T14:29:10;17.70;1.00
52127;DHT22;38120;53.176;6.614;2023-04-30T14:31:36;17.90;1.00
52127;DHT22;38120;53.176;6.614;2023-04-30T14:34:01;17.80;1.00
52127;DHT22;38120;53.176;6.614;2023-04-30T14:36:27;17.80;1.00
52127;DHT22;38120;53.176;6.614;2023-04-30T14:38:53;17.80;1.00
52127;DHT22;38120;53.176;6.614;2023-04-30T14:41:19;18.00;1.00
52127;DHT22;38120;53.176;6.614;2023-04-30T14:43:45;18.10;1.00
52127;DHT22;38120;53.176;6.614;2023-04-30T14:46:11;18.00;1.00
52127;DHT22;38120;53.176;6.614;2023-04-30T14:48:37;18.20;1.00
52127;DHT22;38120;53.176;6.614;2023-04-30T14:51:03;18.10;1.00
52127;DHT22;38120;53.176;6.614;2023-04-30T14:53:29;18.20;1.00
52127;DHT22;38120;53.176;6.614;2023-04-30T14:55:55;18.20;1.00
52127;DHT22;38120;53.176;6.614;2023-04-30T14:58:21;18.10;1.00
52127;DHT22;38120;53.176;6.614;2023-04-30T15:00:46;18.00;1.00
52127;DHT22;38120;53.176;6.614;2023-04-30T15:03:28;18.00;1.00
52127;DHT22;38120;53.176;6.614;2023-04-30T15:05:55;18.10;1.00
52127;DHT22;38120;53.176;6.614;2023-04-30T15:08:21;18.10;1.00
52127;DHT22;38120;53.176;6.614;2023-04-30T15:10:47;18.00;1.00
52127;DHT22;38120;53.176;6.614;2023-04-30T15:13:12;17.80;1.00
52127;DHT22;38120;53.176;6.614;2023-04-30T15:15:38;17.80;1.00
52127;DHT22;38120;53.176;6.614;2023-04-30T15:18:05;18.00;1.00
52127;DHT22;38120;53.176;6.614;2023-04-30T15:20:31;18.20;1.00
52127;DHT22;38120;53.176;6.614;2023-04-30T15:22:57;17.90;1.00
52127;DHT22;38120;53.176;6.614;2023-04-30T15:25:23;17.90;1.00
52127;DHT22;38120;53.176;6.614;2023-04-30T15:27:50;18.10;1.00
52127;DHT22;38120;53.176;6.614;2023-04-30T15:30:16;17.90;1.00
52127;DHT22;38120;53.176;6.614;2023-04-30T15:32:43;17.90;1.00
52127;DHT22;38120;53.176;6.614;2023-04-30T15:35:08;18.00;1.00
52127;DHT22;38120;53.176;6.614;2023-04-30T15:37:35;18.20;1.00
52127;DHT22;38120;53.176;6.614;2023-04-30T15:40:02;18.20;1.00
52127;DHT22;38120;53.176;6.614;2023-04-30T15:42:29;17.90;1.00
52127;DHT22;38120;53.176;6.614;2023-04-30T15:44:55;18.20;1.00
52127;DHT22;38120;53.176;6.614;2023-04-30T15:47:21;18.20;1.00
52127;DHT22;38120;53.176;6.614;2023-04-30T15:49:47;18.10;1.00
52127;DHT22;38120;53.176;6.614;2023-04-30T15:52:13;18.10;1.00
52127;DHT22;38120;53.176;6.614;2023-04-30T15:54:39;18.10;1.00
52127;DHT22;38120;53.176;6.614;2023-04-30T15:57:05;17.80;1.00
52127;DHT22;38120;53.176;6.614;2023-04-30T15:59:31;18.00;1.00
52127;DHT22;38120;53.176;6.614;2023-04-30T16:01:57;17.80;1.00